createdAt,value
2022-07-26T00:01:37.053Z,98106.55
2022-07-26T00:04:08.186Z,98102.94
2022-07-26T00:06:39.294Z,98101.15
2022-07-26T00:09:10.356Z,98099.59
2022-07-26T00:11:41.727Z,98100.72
2022-07-26T00:14:12.762Z,98099.44
2022-07-26T00:16:43.869Z,98100.46
2022-07-26T00:19:15.170Z,98101.57
2022-07-26T00:21:46.248Z,98099.20
2022-07-26T00:24:16.996Z,98099.72
2022-07-26T00:26:48.163Z,98102.89
2022-07-26T00:29:18.869Z,98108.71
2022-07-26T00:31:49.811Z,98106.63
2022-07-26T00:34:20.659Z,98107.70
2022-07-26T00:36:51.779Z,98100.45
2022-07-26T00:39:25.030Z,98096.39
2022-07-26T00:41:55.857Z,98097.25
2022-07-26T00:44:36.716Z,98101.95
2022-07-26T00:47:08.234Z,98099.83
2022-07-26T00:49:39.312Z,98094.75
2022-07-26T00:52:11.154Z,98093.41
2022-07-26T00:54:44.005Z,98092.70
2022-07-26T00:57:15.237Z,98097.78
2022-07-26T00:59:43.567Z,98097.05
2022-07-26T01:02:15.118Z,98094.60
2022-07-26T01:04:46.689Z,98093.95
2022-07-26T01:07:17.466Z,98088.93
2022-07-26T01:09:48.112Z,98086.73
2022-07-26T01:12:18.936Z,98085.39
2022-07-26T01:14:49.487Z,98080.48
2022-07-26T01:17:20.355Z,98077.89
2022-07-26T01:19:52.677Z,98076.79
2022-07-26T01:22:22.001Z,98078.05
2022-07-26T01:24:52.644Z,98078.23
2022-07-26T01:27:21.700Z,98080.43
2022-07-26T01:29:52.610Z,98076.08
2022-07-26T01:32:20.681Z,98077.51
2022-07-26T01:34:51.527Z,98079.07
2022-07-26T01:37:22.489Z,98075.40
2022-07-26T01:39:53.480Z,98073.67
2022-07-26T01:42:24.297Z,98070.98
2022-07-26T01:44:55.030Z,98073.22
2022-07-26T01:47:25.793Z,98073.66
2022-07-26T01:49:56.470Z,98074.36
2022-07-26T01:52:27.709Z,98074.38
2022-07-26T01:54:59.146Z,98070.13
2022-07-26T01:57:29.848Z,98071.98
2022-07-26T01:59:59.303Z,98071.80
2022-07-26T02:02:30.243Z,98073.55
2022-07-26T02:05:02.114Z,98076.15
2022-07-26T02:07:37.475Z,98073.83
2022-07-26T02:10:12.134Z,98073.68
2022-07-26T02:12:44.104Z,98072.11
2022-07-26T02:15:14.941Z,98075.67
2022-07-26T02:17:45.990Z,98076.39
2022-07-26T02:20:17.218Z,98076.75
2022-07-26T02:22:48.233Z,98076.23
2022-07-26T02:25:19.468Z,98073.83
2022-07-26T02:27:50.147Z,98074.77
2022-07-26T02:30:21.083Z,98076.82
2022-07-26T02:32:52.174Z,98074.58
2022-07-26T02:35:23.843Z,98072.87
2022-07-26T02:37:54.927Z,98070.10
2022-07-26T02:40:25.736Z,98071.41
2022-07-26T02:42:56.657Z,98071.86
2022-07-26T02:45:27.911Z,98069.59
2022-07-26T02:47:59.004Z,98068.59
2022-07-26T02:50:30.324Z,98069.11
2022-07-26T02:53:00.981Z,98070.08
2022-07-26T02:55:33.673Z,98070.51
2022-07-26T02:58:04.641Z,98065.67
2022-07-26T03:00:35.709Z,98067.69
2022-07-26T03:03:06.722Z,98066.77
2022-07-26T03:05:37.797Z,98066.75
2022-07-26T03:08:08.835Z,98067.48
2022-07-26T03:10:39.797Z,98068.86
2022-07-26T03:13:07.742Z,98068.52
2022-07-26T03:15:38.492Z,98068.48
2022-07-26T03:18:09.404Z,98066.70
2022-07-26T03:20:40.501Z,98063.33
2022-07-26T03:23:11.311Z,98063.67
2022-07-26T03:25:42.832Z,98063.13
2022-07-26T03:28:19.208Z,98064.73
2022-07-26T03:30:50.591Z,98059.48
2022-07-26T03:33:21.799Z,98062.38
2022-07-26T03:35:52.666Z,98064.26
2022-07-26T03:38:24.813Z,98066.40
2022-07-26T03:40:55.832Z,98068.91
2022-07-26T03:43:27.622Z,98072.21
2022-07-26T03:45:58.391Z,98072.03
2022-07-26T03:48:30.698Z,98070.73
2022-07-26T03:51:01.663Z,98072.23
2022-07-26T03:53:34.800Z,98071.58
2022-07-26T03:56:24.782Z,98070.88
2022-07-26T03:58:55.895Z,98069.47
2022-07-26T04:01:26.907Z,98065.19
2022-07-26T04:03:58.117Z,98062.98
2022-07-26T04:06:29.281Z,98064.02
2022-07-26T04:09:00.585Z,98055.19
2022-07-26T04:11:31.526Z,98054.73
2022-07-26T04:14:02.572Z,98057.96
2022-07-26T04:16:53.854Z,98057.27
2022-07-26T04:19:24.488Z,98056.37
2022-07-26T04:21:55.564Z,98055.42
2022-07-26T04:24:26.410Z,98055.41
2022-07-26T04:26:57.302Z,98055.77
2022-07-26T04:29:27.929Z,98060.32
2022-07-26T04:31:58.754Z,98068.47
2022-07-26T04:34:29.726Z,98064.25
2022-07-26T04:37:01.058Z,98061.32
2022-07-26T04:39:36.836Z,98053.85
2022-07-26T04:42:07.930Z,98055.47
2022-07-26T04:44:38.962Z,98050.52
2022-07-26T04:47:12.852Z,98045.48
2022-07-26T04:49:45.398Z,98044.88
2022-07-26T04:52:16.109Z,98040.80
2022-07-26T04:54:48.043Z,98043.45
2022-07-26T04:57:19.067Z,98042.52
2022-07-26T05:00:03.400Z,98042.51
2022-07-26T05:02:40.147Z,98043.23
2022-07-26T05:05:10.964Z,98034.94
2022-07-26T05:07:48.011Z,98034.73
2022-07-26T05:10:19.685Z,98033.46
2022-07-26T05:12:51.067Z,98039.33
2022-07-26T05:15:22.153Z,98035.83
2022-07-26T05:17:57.111Z,98031.09
2022-07-26T05:20:28.197Z,98031.09
2022-07-26T05:22:59.372Z,98031.52
2022-07-26T05:25:30.476Z,98032.88
2022-07-26T05:28:01.821Z,98034.52
2022-07-26T05:30:32.648Z,98029.28
2022-07-26T05:33:03.269Z,98026.04
2022-07-26T05:35:33.986Z,98025.36
2022-07-26T05:38:04.930Z,98023.48
2022-07-26T05:40:35.804Z,98023.44
2022-07-26T05:43:06.651Z,98022.38
2022-07-26T05:45:38.794Z,98020.52
2022-07-26T05:48:10.192Z,98022.38
2022-07-26T05:50:44.176Z,98023.20
2022-07-26T05:53:15.360Z,98019.42
2022-07-26T05:55:50.097Z,98019.56
2022-07-26T05:58:21.339Z,98020.87
2022-07-26T06:00:52.198Z,98018.23
2022-07-26T06:03:23.481Z,98013.85
2022-07-26T06:05:55.301Z,98011.91
2022-07-26T06:08:26.736Z,98007.81
2022-07-26T06:10:58.137Z,98006.69
2022-07-26T06:13:26.372Z,98009.88
2022-07-26T06:15:57.257Z,98005.42
2022-07-26T06:18:30.806Z,98004.89
2022-07-26T06:21:02.548Z,98007.95
2022-07-26T06:23:35.124Z,98005.38
2022-07-26T06:26:06.645Z,98001.58
2022-07-26T06:28:39.582Z,98001.73
2022-07-26T06:31:10.717Z,98006.06
2022-07-26T06:33:41.772Z,98004.39
2022-07-26T06:36:12.876Z,98001.09
2022-07-26T06:38:51.572Z,97999.16
2022-07-26T06:41:22.614Z,97996.53
2022-07-26T06:43:57.364Z,97998.70
2022-07-26T06:46:29.559Z,97995.93
2022-07-26T06:49:00.786Z,97992.31
2022-07-26T06:51:34.564Z,97992.57
2022-07-26T06:54:06.031Z,97993.64
2022-07-26T06:56:37.153Z,97996.36
2022-07-26T06:59:11.075Z,97992.56
2022-07-26T07:01:58.752Z,97991.30
2022-07-26T07:04:34.006Z,97989.83
2022-07-26T07:07:08.640Z,97989.32
2022-07-26T07:09:40.211Z,97987.67
2022-07-26T07:12:11.071Z,97985.53
2022-07-26T07:14:41.935Z,97980.91
2022-07-26T07:17:17.138Z,97983.61
2022-07-26T07:19:50.699Z,97986.62
2022-07-26T07:22:21.618Z,97984.48
2022-07-26T07:24:52.435Z,97980.10
2022-07-26T07:27:23.280Z,97976.76
2022-07-26T07:29:54.272Z,97976.21
2022-07-26T07:32:27.416Z,97974.39
2022-07-26T07:34:59.428Z,97972.29
2022-07-26T07:37:52.356Z,97968.20
2022-07-26T07:40:23.216Z,97964.54
2022-07-26T07:42:53.900Z,97963.98
2022-07-26T07:45:26.032Z,97965.41
2022-07-26T07:47:56.805Z,97967.53
2022-07-26T07:50:28.421Z,97964.70
2022-07-26T07:52:59.806Z,97963.76
2022-07-26T07:55:43.690Z,97962.64
2022-07-26T07:58:18.935Z,97959.30
2022-07-26T08:00:50.027Z,97960.64
2022-07-26T08:03:20.945Z,97961.52
2022-07-26T08:05:52.188Z,97956.55
2022-07-26T08:08:30.133Z,97955.66
2022-07-26T08:11:08.460Z,97951.59
2022-07-26T08:13:37.705Z,97950.17
2022-07-26T08:16:09.496Z,97946.72
2022-07-26T08:18:55.712Z,97950.92
2022-07-26T08:21:28.991Z,97943.33
2022-07-26T08:24:00.319Z,97939.05
2022-07-26T08:26:32.449Z,97935.30
2022-07-26T08:29:03.671Z,97930.41
2022-07-26T08:31:44.458Z,97927.77
2022-07-26T08:34:22.930Z,97929.70
2022-07-26T08:37:15.307Z,97923.33
2022-07-26T08:39:46.946Z,97918.31
2022-07-26T08:42:22.815Z,97916.30
2022-07-26T08:44:55.091Z,97913.11
2022-07-26T08:47:37.949Z,97911.27
2022-07-26T08:50:14.101Z,97916.65
2022-07-26T08:52:45.987Z,97914.38
2022-07-26T08:55:21.037Z,97909.00
2022-07-26T08:57:54.553Z,97903.19
2022-07-26T09:00:26.888Z,97904.79
2022-07-26T09:02:59.425Z,97904.57
2022-07-26T09:05:37.093Z,97904.40
2022-07-26T09:08:25.009Z,97905.60
2022-07-26T09:10:56.517Z,97904.03
2022-07-26T09:13:24.594Z,97907.61
2022-07-26T09:16:14.334Z,97901.53
2022-07-26T09:18:49.551Z,97903.95
2022-07-26T09:21:32.810Z,97901.00
2022-07-26T09:24:03.986Z,97899.98
2022-07-26T09:26:35.158Z,97902.31
2022-07-26T09:29:30.202Z,97897.46
2022-07-26T09:32:20.986Z,97894.42
2022-07-26T09:34:59.355Z,97891.19
2022-07-26T09:37:41.265Z,97888.15
2022-07-26T09:40:16.330Z,97888.69
2022-07-26T09:43:05.697Z,97889.38
2022-07-26T09:45:36.959Z,97883.59
2022-07-26T09:48:15.391Z,97872.58
2022-07-26T09:50:48.612Z,97875.67
2022-07-26T09:53:22.955Z,97871.56
2022-07-26T09:55:57.004Z,97871.30
2022-07-26T09:58:29.457Z,97872.02
2022-07-26T10:01:02.490Z,97866.85
2022-07-26T10:03:32.818Z,97866.23
2022-07-26T10:06:04.527Z,97863.96
2022-07-26T10:08:35.584Z,97861.36
2022-07-26T10:11:09.725Z,97862.94
2022-07-26T10:13:38.968Z,97863.96
2022-07-26T10:16:30.068Z,97866.33
2022-07-26T10:19:04.822Z,97860.41
2022-07-26T10:21:36.000Z,97860.16
2022-07-26T10:24:27.088Z,97853.82
2022-07-26T10:26:58.116Z,97853.43
2022-07-26T10:29:29.469Z,97851.43
2022-07-26T10:32:09.240Z,97844.98
2022-07-26T10:34:40.379Z,97849.82
2022-07-26T10:37:20.279Z,97850.16
2022-07-26T10:40:11.869Z,97841.98
2022-07-26T10:42:45.875Z,97830.46
2022-07-26T10:45:22.325Z,97825.04
2022-07-26T10:48:13.012Z,97823.45
2022-07-26T10:50:45.518Z,97824.98
2022-07-26T10:53:48.938Z,97810.29
2022-07-26T10:56:20.263Z,97817.47
2022-07-26T10:58:53.333Z,97815.02
2022-07-26T11:01:43.368Z,97812.25
2022-07-26T11:04:24.828Z,97817.94
2022-07-26T11:07:07.970Z,97817.70
2022-07-26T11:09:40.589Z,97808.40
2022-07-26T11:12:18.643Z,97808.45
2022-07-26T11:14:54.556Z,97803.38
2022-07-26T11:17:34.233Z,97801.84
2022-07-26T11:20:12.501Z,97797.35
2022-07-26T11:22:50.903Z,97799.17
2022-07-26T11:25:25.079Z,97796.98
2022-07-26T11:28:07.172Z,97796.48
2022-07-26T11:30:56.465Z,97791.81
2022-07-26T11:33:42.288Z,97785.30
2022-07-26T11:36:20.695Z,97786.51
2022-07-26T11:39:16.563Z,97781.02
2022-07-26T11:41:47.743Z,97782.19
2022-07-26T11:44:25.086Z,97782.73
2022-07-26T11:46:58.073Z,97772.48
2022-07-26T11:49:52.759Z,97764.17
2022-07-26T11:52:28.936Z,97767.52
2022-07-26T11:54:59.890Z,97759.91
2022-07-26T11:57:32.712Z,97762.01
2022-07-26T12:00:02.144Z,97758.61
2022-07-26T12:02:56.289Z,97756.17
2022-07-26T12:05:27.485Z,97753.10
2022-07-26T12:08:07.584Z,97751.94
2022-07-26T12:10:44.389Z,97752.17
2022-07-26T12:13:25.055Z,97753.20
2022-07-26T12:15:58.476Z,97750.05
2022-07-26T12:18:33.177Z,97751.01
2022-07-26T12:21:18.351Z,97747.70
2022-07-26T12:24:12.238Z,97741.14
2022-07-26T12:26:55.092Z,97736.62
2022-07-26T12:29:36.500Z,97734.98
2022-07-26T12:32:13.489Z,97733.73
2022-07-26T12:35:03.136Z,97733.58
2022-07-26T12:37:47.134Z,97729.15
2022-07-26T12:40:27.379Z,97725.67
2022-07-26T12:43:04.780Z,97726.37
2022-07-26T12:45:36.295Z,97723.08
2022-07-26T12:48:13.208Z,97715.35
2022-07-26T12:50:54.424Z,97711.66
2022-07-26T12:53:37.952Z,97714.63
2022-07-26T12:56:11.220Z,97714.20
2022-07-26T12:58:42.049Z,97712.94
2022-07-26T13:01:13.059Z,97706.23
2022-07-26T13:03:44.348Z,97703.64
2022-07-26T13:06:15.468Z,97705.79
2022-07-26T13:08:46.459Z,97705.85
2022-07-26T13:11:17.557Z,97705.54
2022-07-26T13:13:46.916Z,97706.60
2022-07-26T13:16:18.155Z,97704.11
2022-07-26T13:18:52.527Z,97702.78
2022-07-26T13:21:23.526Z,97697.86
2022-07-26T13:23:54.271Z,97697.90
2022-07-26T13:26:25.163Z,97698.22
2022-07-26T13:28:55.939Z,97693.86
2022-07-26T13:31:29.313Z,97697.95
2022-07-26T13:34:00.641Z,97697.91
2022-07-26T13:36:32.232Z,97697.52
2022-07-26T13:39:03.656Z,97691.05
2022-07-26T13:41:37.472Z,97681.88
2022-07-26T13:44:11.453Z,97684.19
2022-07-26T13:46:45.866Z,97684.98
2022-07-26T13:49:17.224Z,97680.58
2022-07-26T13:51:57.565Z,97680.05
2022-07-26T13:54:33.513Z,97677.80
2022-07-26T13:57:05.176Z,97676.22
2022-07-26T13:59:34.558Z,97672.75
2022-07-26T14:02:07.647Z,97670.55
2022-07-26T14:04:38.744Z,97675.56
2022-07-26T14:07:09.370Z,97672.38
2022-07-26T14:09:40.373Z,97671.27
2022-07-26T14:12:15.403Z,97672.23
2022-07-26T14:14:49.123Z,97670.05
2022-07-26T14:17:20.098Z,97662.42
2022-07-26T14:19:51.838Z,97664.77
2022-07-26T14:22:25.737Z,97671.45
2022-07-26T14:24:57.070Z,97666.61
2022-07-26T14:27:28.106Z,97664.89
2022-07-26T14:29:58.995Z,97659.05
2022-07-26T14:32:30.022Z,97656.27
2022-07-26T14:35:01.758Z,97662.05
2022-07-26T14:37:43.893Z,97663.14
2022-07-26T14:40:17.261Z,97658.66
2022-07-26T14:42:48.647Z,97658.39
2022-07-26T14:45:20.132Z,97654.84
2022-07-26T14:47:51.389Z,97655.16
2022-07-26T14:50:34.973Z,97648.97
2022-07-26T14:53:16.135Z,97646.48
2022-07-26T14:55:47.403Z,97646.44
2022-07-26T14:58:18.163Z,97644.00
2022-07-26T15:00:47.866Z,97646.08
2022-07-26T15:03:18.958Z,97643.46
2022-07-26T15:05:50.222Z,97637.23
2022-07-26T15:08:21.118Z,97639.92
2022-07-26T15:10:51.878Z,97636.17
2022-07-26T15:13:22.734Z,97639.34
2022-07-26T15:15:54.470Z,97632.85
2022-07-26T15:18:25.208Z,97631.83
2022-07-26T15:20:57.844Z,97636.30
2022-07-26T15:23:29.247Z,97637.98
2022-07-26T15:25:59.970Z,97636.09
2022-07-26T15:28:30.777Z,97630.77
2022-07-26T15:31:01.587Z,97628.15
2022-07-26T15:33:32.887Z,97622.20
2022-07-26T15:36:05.885Z,97623.96
2022-07-26T15:38:37.300Z,97622.78
2022-07-26T15:41:07.881Z,97621.26
2022-07-26T15:43:47.985Z,97619.11
2022-07-26T15:46:20.261Z,97617.84
2022-07-26T15:48:54.045Z,97619.52
2022-07-26T15:51:29.744Z,97619.03
2022-07-26T15:54:05.239Z,97618.48
2022-07-26T15:56:36.745Z,97617.39
2022-07-26T15:59:08.591Z,97614.60
2022-07-26T16:01:39.474Z,97617.05
2022-07-26T16:04:11.330Z,97615.63
2022-07-26T16:06:42.562Z,97614.84
2022-07-26T16:09:17.340Z,97615.32
2022-07-26T16:11:49.082Z,97618.34
2022-07-26T16:14:18.895Z,97621.34
2022-07-26T16:16:49.660Z,97623.16
2022-07-26T16:19:20.523Z,97619.75
2022-07-26T16:21:51.490Z,97620.31
2022-07-26T16:24:25.662Z,97622.38
2022-07-26T16:26:56.825Z,97626.65
2022-07-26T16:29:27.820Z,97624.75
2022-07-26T16:31:58.414Z,97622.92
2022-07-26T16:34:31.299Z,97622.69
2022-07-26T16:37:04.372Z,97623.61
2022-07-26T16:39:35.731Z,97622.87
2022-07-26T16:42:07.412Z,97628.50
2022-07-26T16:44:38.912Z,97626.66
2022-07-26T16:47:11.156Z,97625.70
2022-07-26T16:49:45.441Z,97621.56
2022-07-26T16:52:16.617Z,97623.30
2022-07-26T16:54:50.773Z,97623.59
2022-07-26T16:57:21.727Z,97626.36
2022-07-26T17:00:00.434Z,97629.90
2022-07-26T17:02:31.533Z,97626.39
2022-07-26T17:05:03.527Z,97629.29
2022-07-26T17:07:36.807Z,97631.31
2022-07-26T17:10:09.136Z,97632.96
2022-07-26T17:12:41.187Z,97636.72
2022-07-26T17:15:12.055Z,97633.75
2022-07-26T17:17:48.656Z,97635.92
2022-07-26T17:20:19.934Z,97636.36
2022-07-26T17:22:51.012Z,97637.48
2022-07-26T17:25:21.980Z,97640.58
2022-07-26T17:28:12.497Z,97642.81
2022-07-26T17:30:47.655Z,97644.46
2022-07-26T17:33:19.193Z,97644.77
2022-07-26T17:35:50.481Z,97645.55
2022-07-26T17:38:21.551Z,97645.98
2022-07-26T17:40:57.479Z,97646.41
2022-07-26T17:43:36.379Z,97644.94
2022-07-26T17:46:08.328Z,97646.39
2022-07-26T17:48:39.808Z,97648.08
2022-07-26T17:51:10.622Z,97647.24
2022-07-26T17:53:42.994Z,97644.66
2022-07-26T17:56:14.191Z,97643.27
2022-07-26T17:58:45.399Z,97641.69
2022-07-26T18:01:16.256Z,97644.78
2022-07-26T18:03:47.348Z,97645.17
2022-07-26T18:06:19.063Z,97649.53
2022-07-26T18:08:50.005Z,97654.36
2022-07-26T18:11:20.947Z,97657.09
2022-07-26T18:13:49.043Z,97660.20
2022-07-26T18:16:20.050Z,97664.98
2022-07-26T18:18:51.051Z,97666.88
2022-07-26T18:21:21.668Z,97671.16
2022-07-26T18:24:14.682Z,97674.96
2022-07-26T18:26:43.887Z,97675.98
2022-07-26T18:29:16.699Z,97676.45
2022-07-26T18:31:48.270Z,97676.05
2022-07-26T18:34:19.636Z,97677.86
2022-07-26T18:36:50.873Z,97679.65
2022-07-26T18:39:21.903Z,97680.98
2022-07-26T18:41:53.695Z,97683.12
2022-07-26T18:44:24.437Z,97692.34
2022-07-26T18:46:56.568Z,97694.48
2022-07-26T18:49:31.032Z,97698.65
2022-07-26T18:52:08.337Z,97703.31
2022-07-26T18:54:40.377Z,97704.68
2022-07-26T18:57:11.523Z,97702.36
2022-07-26T18:59:42.980Z,97701.89
2022-07-26T19:02:14.281Z,97702.66
2022-07-26T19:04:45.461Z,97704.65
2022-07-26T19:07:16.506Z,97704.08
2022-07-26T19:09:45.933Z,97702.56
2022-07-26T19:12:17.799Z,97696.48
2022-07-26T19:14:48.740Z,97698.26
2022-07-26T19:17:20.571Z,97696.50
2022-07-26T19:19:51.904Z,97699.98
2022-07-26T19:22:24.186Z,97696.44
2022-07-26T19:24:55.431Z,97695.27
2022-07-26T19:27:28.056Z,97696.54
2022-07-26T19:29:58.896Z,97696.23
2022-07-26T19:32:33.523Z,97697.23
2022-07-26T19:35:05.432Z,97695.87
2022-07-26T19:37:38.597Z,97698.11
2022-07-26T19:40:11.630Z,97702.48
2022-07-26T19:42:42.596Z,97700.59
2022-07-26T19:45:12.913Z,97703.35
2022-07-26T19:47:44.159Z,97705.82
2022-07-26T19:50:15.267Z,97706.89
2022-07-26T19:52:46.094Z,97708.50
2022-07-26T19:55:18.109Z,97705.70
2022-07-26T19:57:49.443Z,97703.85
2022-07-26T20:00:20.009Z,97701.98
2022-07-26T20:02:51.251Z,97703.39
2022-07-26T20:05:22.523Z,97699.80
2022-07-26T20:07:53.396Z,97700.55
2022-07-26T20:10:28.531Z,97703.58
2022-07-26T20:13:06.801Z,97702.13
2022-07-26T20:15:37.929Z,97703.20
2022-07-26T20:18:10.269Z,97702.07
2022-07-26T20:20:41.203Z,97706.59
2022-07-26T20:23:15.461Z,97708.95
2022-07-26T20:25:46.430Z,97708.84
2022-07-26T20:28:17.182Z,97711.86
2022-07-26T20:30:53.492Z,97707.92
2022-07-26T20:33:25.626Z,97705.90
2022-07-26T20:35:56.500Z,97707.61
2022-07-26T20:38:27.507Z,97710.71
2022-07-26T20:40:58.658Z,97709.54
2022-07-26T20:43:35.041Z,97704.95
2022-07-26T20:46:05.841Z,97705.51
2022-07-26T20:48:37.108Z,97710.41
2022-07-26T20:51:13.493Z,97710.13
2022-07-26T20:53:45.409Z,97717.48
2022-07-26T20:56:16.537Z,97717.33
2022-07-26T20:58:48.698Z,97713.77
2022-07-26T21:01:20.971Z,97715.69
2022-07-26T21:03:53.217Z,97718.25
2022-07-26T21:06:24.373Z,97722.36
2022-07-26T21:09:00.314Z,97730.70
2022-07-26T21:11:39.990Z,97728.83
2022-07-26T21:14:09.293Z,97730.40
2022-07-26T21:16:40.135Z,97735.72
2022-07-26T21:19:11.242Z,97740.71
2022-07-26T21:21:44.529Z,97742.70
2022-07-26T21:24:15.681Z,97744.17
2022-07-26T21:26:46.719Z,97744.89
2022-07-26T21:29:17.734Z,97747.86
2022-07-26T21:31:47.741Z,97745.63
2022-07-26T21:34:18.688Z,97747.73
2022-07-26T21:36:49.729Z,97748.13
2022-07-26T21:39:21.029Z,97747.83
2022-07-26T21:41:51.998Z,97752.70
2022-07-26T21:44:23.307Z,97747.95
2022-07-26T21:46:55.225Z,97748.06
2022-07-26T21:49:26.055Z,97744.77
2022-07-26T21:51:57.185Z,97742.52
2022-07-26T21:54:26.303Z,97740.94
2022-07-26T21:56:57.122Z,97736.48
2022-07-26T21:59:27.876Z,97742.72
2022-07-26T22:02:00.062Z,97740.58
2022-07-26T22:04:31.269Z,97738.72
2022-07-26T22:07:02.419Z,97738.52
2022-07-26T22:09:36.814Z,97739.69
2022-07-26T22:12:08.037Z,97739.49
2022-07-26T22:14:41.036Z,97742.94
2022-07-26T22:17:11.854Z,97741.79
2022-07-26T22:19:42.701Z,97747.02
2022-07-26T22:22:16.430Z,97744.23
2022-07-26T22:24:47.117Z,97740.13
2022-07-26T22:27:19.594Z,97739.80
2022-07-26T22:29:50.886Z,97740.34
2022-07-26T22:32:21.840Z,97737.80
2022-07-26T22:34:52.700Z,97741.17
2022-07-26T22:37:23.729Z,97743.59
2022-07-26T22:39:54.477Z,97744.55
2022-07-26T22:42:25.421Z,97743.77
2022-07-26T22:44:56.540Z,97743.93
2022-07-26T22:47:27.100Z,97745.50
2022-07-26T22:49:58.191Z,97740.20
2022-07-26T22:52:29.383Z,97742.30
2022-07-26T22:54:59.933Z,97747.61
2022-07-26T22:57:30.873Z,97747.70
2022-07-26T23:00:02.496Z,97746.80
2022-07-26T23:02:33.809Z,97746.22
2022-07-26T23:05:05.011Z,97741.48
2022-07-26T23:07:36.100Z,97744.48
2022-07-26T23:10:09.812Z,97744.06
2022-07-26T23:12:40.817Z,97746.31
2022-07-26T23:15:13.336Z,97743.10
2022-07-26T23:17:44.405Z,97745.55
2022-07-26T23:20:15.912Z,97746.58
2022-07-26T23:22:47.191Z,97751.91
2022-07-26T23:25:18.300Z,97754.38
2022-07-26T23:27:49.490Z,97756.75
2022-07-26T23:30:20.779Z,97755.71
2022-07-26T23:32:51.740Z,97754.63
2022-07-26T23:35:21.712Z,97755.84
2022-07-26T23:37:52.534Z,97759.99
2022-07-26T23:40:25.239Z,97760.82
2022-07-26T23:42:56.459Z,97758.35
2022-07-26T23:45:27.318Z,97758.42
2022-07-26T23:47:57.966Z,97753.90
2022-07-26T23:50:28.796Z,97753.89
2022-07-26T23:53:00.608Z,97757.80
2022-07-26T23:55:35.782Z,97759.56
2022-07-26T23:58:07.131Z,97755.98
